createdAt,value
2019-04-07T00:02:04.814Z,8.38
2019-04-07T00:04:33.827Z,8.37
2019-04-07T00:07:03.559Z,8.38
2019-04-07T00:09:33.138Z,8.34
2019-04-07T00:12:02.172Z,8.29
2019-04-07T00:14:31.757Z,8.34
2019-04-07T00:17:00.805Z,8.33
2019-04-07T00:19:29.828Z,8.29
2019-04-07T00:21:59.331Z,8.29
2019-04-07T00:24:28.389Z,8.29
2019-04-07T00:26:57.842Z,8.30
2019-04-07T00:29:26.882Z,8.29
2019-04-07T00:31:56.136Z,8.29
2019-04-07T00:34:25.194Z,8.27
2019-04-07T00:36:54.210Z,8.24
2019-04-07T00:39:23.305Z,8.25
2019-04-07T00:41:52.202Z,8.24
2019-04-07T00:44:21.265Z,8.22
2019-04-07T00:46:50.960Z,8.21
2019-04-07T00:49:20.593Z,8.25
2019-04-07T00:51:51.370Z,8.22
2019-04-07T00:54:20.457Z,8.21
2019-04-07T00:56:50.153Z,8.20
2019-04-07T00:59:19.693Z,8.18
2019-04-07T01:01:48.781Z,8.15
2019-04-07T01:04:17.664Z,8.10
2019-04-07T01:06:47.208Z,8.11
2019-04-07T01:09:16.561Z,8.08
2019-04-07T01:11:46.228Z,8.06
2019-04-07T01:14:16.026Z,8.01
2019-04-07T01:16:45.621Z,7.98
2019-04-07T01:19:14.822Z,8.03
2019-04-07T01:21:43.874Z,7.98
2019-04-07T01:24:13.265Z,7.98
2019-04-07T01:26:42.312Z,7.98
2019-04-07T01:29:11.282Z,8.00
2019-04-07T01:31:40.455Z,8.00
2019-04-07T01:34:09.581Z,7.97
2019-04-07T01:36:39.120Z,7.97
2019-04-07T01:39:10.501Z,7.95
2019-04-07T01:41:54.838Z,7.96
2019-04-07T01:44:47.235Z,7.97
2019-04-07T01:47:21.586Z,7.96
2019-04-07T01:50:10.029Z,7.96
2019-04-07T01:52:53.619Z,8.00
2019-04-07T01:56:00.288Z,8.04
2019-04-07T01:58:41.607Z,8.00
2019-04-07T02:01:29.761Z,7.93
2019-04-07T02:04:35.999Z,7.86
2019-04-07T02:07:29.464Z,7.82
2019-04-07T02:10:16.317Z,7.83
2019-04-07T02:13:04.421Z,7.77
2019-04-07T02:15:46.208Z,7.77
2019-04-07T02:18:34.273Z,7.70
2019-04-07T02:21:09.686Z,7.71
2019-04-07T02:23:57.509Z,7.68
2019-04-07T02:26:52.281Z,7.68
2019-04-07T02:29:39.967Z,7.66
2019-04-07T02:32:27.906Z,7.61
2019-04-07T02:35:12.293Z,7.57
2019-04-07T02:38:00.864Z,7.54
2019-04-07T02:41:08.828Z,7.48
2019-04-07T02:44:02.657Z,7.49
2019-04-07T02:46:49.506Z,7.50
2019-04-07T02:49:41.272Z,7.51
2019-04-07T02:52:30.333Z,7.49
2019-04-07T02:55:35.485Z,7.50
2019-04-07T02:58:11.765Z,7.48
2019-04-07T03:00:55.507Z,7.45
2019-04-07T03:03:34.280Z,7.44
2019-04-07T03:06:43.987Z,7.44
2019-04-07T03:09:15.263Z,7.45
2019-04-07T03:11:54.694Z,7.44
2019-04-07T03:14:29.106Z,7.45
2019-04-07T03:17:06.687Z,7.46
2019-04-07T03:19:49.930Z,7.44
2019-04-07T03:22:36.884Z,7.44
2019-04-07T03:25:34.334Z,7.44
2019-04-07T03:28:21.460Z,7.44
2019-04-07T03:31:07.051Z,7.42
2019-04-07T03:33:49.727Z,7.40
2019-04-07T03:36:28.955Z,7.37
2019-04-07T03:39:01.978Z,7.31
2019-04-07T03:41:49.201Z,7.32
2019-04-07T03:44:43.454Z,7.33
2019-04-07T03:47:23.410Z,7.33
2019-04-07T03:50:16.501Z,7.32
2019-04-07T03:53:08.700Z,7.33
2019-04-07T03:55:51.264Z,7.30
2019-04-07T03:58:38.343Z,7.28
2019-04-07T04:01:28.467Z,7.29
2019-04-07T04:04:29.913Z,7.24
2019-04-07T04:07:29.951Z,7.26
2019-04-07T04:10:11.211Z,7.26
2019-04-07T04:13:07.044Z,7.26
2019-04-07T04:15:41.551Z,7.25
2019-04-07T04:18:11.934Z,7.25
2019-04-07T04:20:41.293Z,7.24
2019-04-07T04:23:11.248Z,7.26
2019-04-07T04:25:41.057Z,7.25
2019-04-07T04:28:10.145Z,7.25
2019-04-07T04:30:39.740Z,7.25
2019-04-07T04:33:09.036Z,7.25
2019-04-07T04:35:38.848Z,7.25
2019-04-07T04:38:08.231Z,7.24
2019-04-07T04:40:37.523Z,7.24
2019-04-07T04:43:06.592Z,7.24
2019-04-07T04:45:36.326Z,7.25
2019-04-07T04:48:06.570Z,7.29
2019-04-07T04:50:36.241Z,7.31
2019-04-07T04:53:06.112Z,7.31
2019-04-07T04:55:35.380Z,7.35
2019-04-07T04:58:05.310Z,7.40
2019-04-07T05:00:34.477Z,7.40
2019-04-07T05:03:04.571Z,7.47
2019-04-07T05:05:34.476Z,7.50
2019-04-07T05:08:05.390Z,7.64
2019-04-07T05:10:34.917Z,7.84
2019-04-07T05:13:04.527Z,8.04
2019-04-07T05:15:34.206Z,8.22
2019-04-07T05:18:04.215Z,8.55
2019-04-07T05:20:33.361Z,8.78
2019-04-07T05:23:02.638Z,9.08
2019-04-07T05:25:32.713Z,9.29
2019-04-07T05:28:01.834Z,9.55
2019-04-07T05:30:31.325Z,9.81
2019-04-07T05:33:00.967Z,10.05
2019-04-07T05:35:30.601Z,10.09
2019-04-07T05:38:04.020Z,10.22
2019-04-07T05:40:31.086Z,10.65
2019-04-07T05:43:00.760Z,10.90
2019-04-07T05:45:30.438Z,11.18
2019-04-07T05:48:00.093Z,11.36
2019-04-07T05:50:29.666Z,11.71
2019-04-07T05:52:59.269Z,11.97
2019-04-07T05:55:28.288Z,12.17
2019-04-07T05:57:57.557Z,12.43
2019-04-07T06:00:26.753Z,12.57
2019-04-07T06:02:56.043Z,12.98
2019-04-07T06:05:25.481Z,13.06
2019-04-07T06:07:54.467Z,13.31
2019-04-07T06:10:27.614Z,13.30
2019-04-07T06:12:55.314Z,13.44
2019-04-07T06:15:24.719Z,13.34
2019-04-07T06:17:58.762Z,13.32
2019-04-07T06:20:24.785Z,13.68
2019-04-07T06:22:54.637Z,13.86
2019-04-07T06:25:23.794Z,13.98
2019-04-07T06:27:53.240Z,14.25
2019-04-07T06:30:23.310Z,14.08
2019-04-07T06:32:52.803Z,14.14
2019-04-07T06:35:22.508Z,14.55
2019-04-07T06:37:52.025Z,14.71
2019-04-07T06:40:22.202Z,14.54
2019-04-07T06:42:51.546Z,14.56
2019-04-07T06:45:24.500Z,14.96
2019-04-07T06:47:56.319Z,14.93
2019-04-07T06:50:49.306Z,14.99
2019-04-07T06:53:19.683Z,15.07
2019-04-07T06:56:11.463Z,15.02
2019-04-07T06:59:11.930Z,15.09
2019-04-07T07:01:59.390Z,15.32
2019-04-07T07:04:50.684Z,15.26
2019-04-07T07:07:36.410Z,15.71
2019-04-07T07:10:25.929Z,15.66
2019-04-07T07:12:59.623Z,15.97
2019-04-07T07:15:43.854Z,15.81
2019-04-07T07:18:19.967Z,15.94
2019-04-07T07:21:07.236Z,16.07
2019-04-07T07:23:38.712Z,15.94
2019-04-07T07:26:08.177Z,16.10
2019-04-07T07:28:38.027Z,16.15
2019-04-07T07:31:07.818Z,15.84
2019-04-07T07:33:40.405Z,15.37
2019-04-07T07:36:07.948Z,14.79
2019-04-07T07:38:36.998Z,14.63
2019-04-07T07:41:06.367Z,14.12
2019-04-07T07:43:35.820Z,13.91
2019-04-07T07:46:05.590Z,13.71
2019-04-07T07:48:35.620Z,13.64
2019-04-07T07:51:07.152Z,13.63
2019-04-07T07:53:36.130Z,13.67
2019-04-07T07:56:08.348Z,13.64
2019-04-07T07:58:35.929Z,13.60
2019-04-07T08:01:05.451Z,13.80
2019-04-07T08:03:35.115Z,13.99
2019-04-07T08:06:07.392Z,14.28
2019-04-07T08:08:35.278Z,14.51
2019-04-07T08:11:04.600Z,14.36
2019-04-07T08:13:41.225Z,14.59
2019-04-07T08:16:05.080Z,14.75
2019-04-07T08:18:37.170Z,14.71
2019-04-07T08:21:05.547Z,14.69
2019-04-07T08:23:35.178Z,14.54
2019-04-07T08:26:04.966Z,14.25
2019-04-07T08:28:35.863Z,14.17
2019-04-07T08:31:05.540Z,14.30
2019-04-07T08:33:35.522Z,14.35
2019-04-07T08:36:09.663Z,14.44
2019-04-07T08:38:35.420Z,14.60
2019-04-07T08:41:08.167Z,14.69
2019-04-07T08:43:35.224Z,14.87
2019-04-07T08:46:05.081Z,14.89
2019-04-07T08:48:35.147Z,14.97
2019-04-07T08:51:04.729Z,14.91
2019-04-07T08:53:34.204Z,15.09
2019-04-07T08:56:06.372Z,14.91
2019-04-07T08:58:38.478Z,15.19
2019-04-07T09:01:06.411Z,15.09
2019-04-07T09:03:35.870Z,15.37
2019-04-07T09:06:04.927Z,15.43
2019-04-07T09:08:36.120Z,15.73
2019-04-07T09:11:11.209Z,15.88
2019-04-07T09:13:42.040Z,15.94
2019-04-07T09:16:24.658Z,15.95
2019-04-07T09:19:12.385Z,16.05
2019-04-07T09:21:50.470Z,16.18
2019-04-07T09:24:37.041Z,16.19
2019-04-07T09:27:25.778Z,16.37
2019-04-07T09:30:23.566Z,16.46
2019-04-07T09:33:07.107Z,16.47
2019-04-07T09:35:58.951Z,16.70
2019-04-07T09:38:30.352Z,16.55
2019-04-07T09:41:27.475Z,16.71
2019-04-07T09:44:20.858Z,16.72
2019-04-07T09:47:00.987Z,16.84
2019-04-07T09:49:48.169Z,17.09
2019-04-07T09:52:37.668Z,17.01
2019-04-07T09:55:27.902Z,16.84
2019-04-07T09:58:11.981Z,17.11
2019-04-07T10:01:09.495Z,17.10
2019-04-07T10:03:57.597Z,17.15
2019-04-07T10:06:49.532Z,17.25
2019-04-07T10:09:28.969Z,17.32
2019-04-07T10:12:28.234Z,17.36
2019-04-07T10:15:06.685Z,17.40
2019-04-07T10:18:02.062Z,17.49
2019-04-07T10:21:03.179Z,17.62
2019-04-07T10:23:50.881Z,17.57
2019-04-07T10:26:28.458Z,17.44
2019-04-07T10:29:06.981Z,17.67
2019-04-07T10:32:04.706Z,17.63
2019-04-07T10:34:50.975Z,17.63
2019-04-07T10:37:45.503Z,17.76
2019-04-07T10:40:35.738Z,17.76
2019-04-07T10:43:24.013Z,17.62
2019-04-07T10:46:12.450Z,17.77
2019-04-07T10:48:55.963Z,17.90
2019-04-07T10:51:34.384Z,17.87
2019-04-07T10:54:26.715Z,17.86
2019-04-07T10:57:13.801Z,18.06
2019-04-07T10:59:49.220Z,18.05
2019-04-07T11:02:46.726Z,18.07
2019-04-07T11:05:44.785Z,18.25
2019-04-07T11:08:21.317Z,18.26
2019-04-07T11:11:12.200Z,18.40
2019-04-07T11:14:13.423Z,18.07
2019-04-07T11:17:10.280Z,18.25
2019-04-07T11:19:57.549Z,18.30
2019-04-07T11:22:44.430Z,18.18
2019-04-07T11:25:27.362Z,18.44
2019-04-07T11:28:15.470Z,18.38
2019-04-07T11:30:52.108Z,18.58
2019-04-07T11:33:29.642Z,18.70
2019-04-07T11:36:09.436Z,18.69
2019-04-07T11:38:48.395Z,18.51
2019-04-07T11:41:34.685Z,18.47
2019-04-07T11:44:12.929Z,18.43
2019-04-07T11:47:07.216Z,18.56
2019-04-07T11:49:55.111Z,18.62
2019-04-07T11:52:42.072Z,18.60
2019-04-07T11:55:19.264Z,18.55
2019-04-07T11:58:14.375Z,18.70
2019-04-07T12:01:03.522Z,18.67
2019-04-07T12:03:53.801Z,18.67
2019-04-07T12:06:31.661Z,18.54
2019-04-07T12:09:25.885Z,18.76
2019-04-07T12:12:11.551Z,18.68
2019-04-07T12:14:56.637Z,18.64
2019-04-07T12:17:51.291Z,18.59
2019-04-07T12:20:51.890Z,18.78
2019-04-07T12:23:30.653Z,18.68
2019-04-07T12:26:11.414Z,18.80
2019-04-07T12:29:09.105Z,18.82
2019-04-07T12:32:00.727Z,18.82
2019-04-07T12:34:49.818Z,18.81
2019-04-07T12:37:35.038Z,19.04
2019-04-07T12:40:22.877Z,19.09
2019-04-07T12:43:03.506Z,18.84
2019-04-07T12:45:58.094Z,18.81
2019-04-07T12:48:33.021Z,18.78
2019-04-07T12:51:33.927Z,18.94
2019-04-07T12:54:23.317Z,18.83
2019-04-07T12:57:07.431Z,18.88
2019-04-07T12:59:55.138Z,18.87
2019-04-07T13:02:47.503Z,18.87
2019-04-07T13:05:35.954Z,18.81
2019-04-07T13:08:33.758Z,18.66
2019-04-07T13:11:26.552Z,18.71
2019-04-07T13:14:06.181Z,18.62
2019-04-07T13:16:56.454Z,18.52
2019-04-07T13:19:35.297Z,18.43
2019-04-07T13:22:23.535Z,18.48
2019-04-07T13:25:31.163Z,18.34
2019-04-07T13:28:17.315Z,18.37
2019-04-07T13:31:10.160Z,18.39
2019-04-07T13:33:50.142Z,18.53
2019-04-07T13:36:36.266Z,18.55
2019-04-07T13:39:39.243Z,18.45
2019-04-07T13:42:15.277Z,18.45
2019-04-07T13:45:09.545Z,18.41
2019-04-07T13:47:44.758Z,18.40
2019-04-07T13:50:34.477Z,18.35
2019-04-07T13:53:17.486Z,18.18
2019-04-07T13:56:00.710Z,18.05
2019-04-07T13:58:49.298Z,18.15
2019-04-07T14:01:40.759Z,18.28
2019-04-07T14:04:31.664Z,18.30
2019-04-07T14:07:07.871Z,18.49
2019-04-07T14:09:45.228Z,18.50
2019-04-07T14:12:49.031Z,18.51
2019-04-07T14:15:36.014Z,18.62
2019-04-07T14:18:15.489Z,18.80
2019-04-07T14:21:02.972Z,18.78
2019-04-07T14:23:58.174Z,18.70
2019-04-07T14:26:43.784Z,18.87
2019-04-07T14:29:31.622Z,18.86
2019-04-07T14:32:09.926Z,18.85
2019-04-07T14:35:04.269Z,18.62
2019-04-07T14:38:00.302Z,18.65
2019-04-07T14:40:51.233Z,18.65
2019-04-07T14:43:27.065Z,18.63
2019-04-07T14:46:01.630Z,18.66
2019-04-07T14:48:50.258Z,18.60
2019-04-07T14:51:42.664Z,18.57
2019-04-07T14:54:29.847Z,18.60
2019-04-07T14:57:17.486Z,18.63
2019-04-07T14:59:54.538Z,18.66
2019-04-07T15:02:24.746Z,18.66
2019-04-07T15:05:00.967Z,18.55
2019-04-07T15:07:48.389Z,18.54
2019-04-07T15:10:24.470Z,18.72
2019-04-07T15:12:56.857Z,18.71
2019-04-07T15:15:26.803Z,18.67
2019-04-07T15:17:55.967Z,18.75
2019-04-07T15:20:25.820Z,18.68
2019-04-07T15:22:58.398Z,18.62
2019-04-07T15:25:27.597Z,18.72
2019-04-07T15:27:58.880Z,18.73
2019-04-07T15:30:27.521Z,18.76
2019-04-07T15:32:58.585Z,18.63
2019-04-07T15:35:27.682Z,18.43
2019-04-07T15:37:57.081Z,18.41
2019-04-07T15:40:26.179Z,18.42
2019-04-07T15:42:55.681Z,18.42
2019-04-07T15:45:24.895Z,18.36
2019-04-07T15:47:54.213Z,18.41
2019-04-07T15:50:23.241Z,18.43
2019-04-07T15:52:52.311Z,18.15
2019-04-07T15:55:21.773Z,18.24
2019-04-07T15:57:54.283Z,18.18
2019-04-07T16:00:22.194Z,18.16
2019-04-07T16:02:52.705Z,18.11
2019-04-07T16:05:22.674Z,17.96
2019-04-07T16:07:54.306Z,18.10
2019-04-07T16:10:23.932Z,18.05
2019-04-07T16:12:56.722Z,18.00
2019-04-07T16:15:25.062Z,18.01
2019-04-07T16:17:54.367Z,17.85
2019-04-07T16:20:26.296Z,17.88
2019-04-07T16:22:54.288Z,17.81
2019-04-07T16:25:27.556Z,17.68
2019-04-07T16:27:54.564Z,17.66
2019-04-07T16:30:24.737Z,17.68
2019-04-07T16:32:54.736Z,17.60
2019-04-07T16:35:24.571Z,17.61
2019-04-07T16:37:54.249Z,17.63
2019-04-07T16:40:23.863Z,17.61
2019-04-07T16:43:04.615Z,17.51
2019-04-07T16:45:23.676Z,17.34
2019-04-07T16:47:53.089Z,17.26
2019-04-07T16:50:22.923Z,17.06
2019-04-07T16:52:51.982Z,16.93
2019-04-07T16:55:41.597Z,16.69
2019-04-07T16:58:11.701Z,16.53
2019-04-07T17:00:41.777Z,16.29
2019-04-07T17:03:11.302Z,16.23
2019-04-07T17:05:40.788Z,16.18
2019-04-07T17:08:10.037Z,16.09
2019-04-07T17:10:39.236Z,16.00
2019-04-07T17:13:17.101Z,15.88
2019-04-07T17:15:40.949Z,15.83
2019-04-07T17:18:36.794Z,15.78
2019-04-07T17:21:12.585Z,15.75
2019-04-07T17:23:41.054Z,15.67
2019-04-07T17:26:10.215Z,15.60
2019-04-07T17:28:42.080Z,15.56
2019-04-07T17:31:11.638Z,15.51
2019-04-07T17:33:41.503Z,15.44
2019-04-07T17:36:15.880Z,15.31
2019-04-07T17:38:46.665Z,15.28
2019-04-07T17:41:18.241Z,15.16
2019-04-07T17:44:02.478Z,15.06
2019-04-07T17:46:42.661Z,14.94
2019-04-07T17:49:36.433Z,14.75
2019-04-07T17:52:26.076Z,14.50
2019-04-07T17:55:12.707Z,14.36
2019-04-07T17:57:49.544Z,14.29
2019-04-07T18:00:47.529Z,14.10
2019-04-07T18:03:29.154Z,14.03
2019-04-07T18:06:21.638Z,13.92
2019-04-07T18:09:27.866Z,13.86
2019-04-07T18:12:25.905Z,13.74
2019-04-07T18:15:11.667Z,13.64
2019-04-07T18:17:56.189Z,13.53
2019-04-07T18:20:57.123Z,13.46
2019-04-07T18:23:38.470Z,13.39
2019-04-07T18:26:18.676Z,13.34
2019-04-07T18:28:59.725Z,13.25
2019-04-07T18:31:46.538Z,13.21
2019-04-07T18:34:41.754Z,13.16
2019-04-07T18:37:26.080Z,13.08
2019-04-07T18:40:14.481Z,12.98
2019-04-07T18:43:13.910Z,12.96
2019-04-07T18:46:06.145Z,12.89
2019-04-07T18:49:01.183Z,12.81
2019-04-07T18:51:59.554Z,12.73
2019-04-07T18:54:54.274Z,12.66
2019-04-07T18:57:42.631Z,12.60
2019-04-07T19:00:21.466Z,12.54
2019-04-07T19:03:22.667Z,12.48
2019-04-07T19:06:10.546Z,12.40
2019-04-07T19:08:54.401Z,12.28
2019-04-07T19:11:26.536Z,12.17
2019-04-07T19:14:31.683Z,12.10
2019-04-07T19:16:50.927Z,12.10
2019-04-07T19:19:39.736Z,12.03
2019-04-07T19:22:28.094Z,11.97
2019-04-07T19:25:14.283Z,11.91
2019-04-07T19:28:17.829Z,11.87
2019-04-07T19:31:18.049Z,11.77
2019-04-07T19:34:05.134Z,11.71
2019-04-07T19:37:08.354Z,11.63
2019-04-07T19:40:11.199Z,11.57
2019-04-07T19:42:48.211Z,11.51
2019-04-07T19:45:41.315Z,11.45
2019-04-07T19:48:40.541Z,11.41
2019-04-07T19:51:29.384Z,11.35
2019-04-07T19:54:13.553Z,11.27
2019-04-07T19:57:09.221Z,11.25
2019-04-07T19:59:52.743Z,11.22
2019-04-07T20:02:44.586Z,11.18
2019-04-07T20:05:44.537Z,11.17
2019-04-07T20:08:26.930Z,11.13
2019-04-07T20:11:27.723Z,11.10
2019-04-07T20:14:05.083Z,11.06
2019-04-07T20:16:59.885Z,11.01
2019-04-07T20:19:51.338Z,11.01
2019-04-07T20:22:30.736Z,10.99
2019-04-07T20:25:17.511Z,10.99
2019-04-07T20:28:06.617Z,10.95
2019-04-07T20:30:57.745Z,10.92
2019-04-07T20:34:02.211Z,10.90
2019-04-07T20:36:57.698Z,10.85
2019-04-07T20:39:56.729Z,10.83
2019-04-07T20:43:03.030Z,10.78
2019-04-07T20:46:06.683Z,10.75
2019-04-07T20:48:43.205Z,10.74
2019-04-07T20:51:20.885Z,10.72
2019-04-07T20:54:07.592Z,10.72
2019-04-07T20:56:59.481Z,10.71
2019-04-07T20:59:48.343Z,10.71
2019-04-07T21:02:29.328Z,10.67
2019-04-07T21:05:16.842Z,10.64
2019-04-07T21:07:57.836Z,10.61
2019-04-07T21:10:58.588Z,10.60
2019-04-07T21:13:43.051Z,10.54
2019-04-07T21:16:31.310Z,10.53
2019-04-07T21:19:22.860Z,10.49
2019-04-07T21:22:00.109Z,10.44
2019-04-07T21:24:51.725Z,10.42
2019-04-07T21:27:40.874Z,10.36
2019-04-07T21:30:33.263Z,10.34
2019-04-07T21:33:11.147Z,10.31
2019-04-07T21:36:10.378Z,10.28
2019-04-07T21:38:55.159Z,10.25
2019-04-07T21:41:45.127Z,10.24
2019-04-07T21:44:36.157Z,10.19
2019-04-07T21:47:27.688Z,10.20
2019-04-07T21:50:11.951Z,10.16
2019-04-07T21:53:00.088Z,10.10
2019-04-07T21:55:45.777Z,10.06
2019-04-07T21:58:42.591Z,10.06
2019-04-07T22:01:39.611Z,10.10
2019-04-07T22:04:18.883Z,10.05
2019-04-07T22:07:09.527Z,10.07
2019-04-07T22:09:49.445Z,10.14
2019-04-07T22:12:16.999Z,10.16
2019-04-07T22:14:46.404Z,10.15
2019-04-07T22:17:16.453Z,10.19
2019-04-07T22:19:46.669Z,10.18
2019-04-07T22:22:16.551Z,10.15
2019-04-07T22:24:46.346Z,10.14
2019-04-07T22:27:21.255Z,10.11
2019-04-07T22:29:46.930Z,10.10
2019-04-07T22:32:19.287Z,10.09
2019-04-07T22:34:46.798Z,10.02
2019-04-07T22:37:18.651Z,9.96
2019-04-07T22:39:47.065Z,9.96
2019-04-07T22:42:17.154Z,9.96
2019-04-07T22:44:47.381Z,9.95
2019-04-07T22:47:16.846Z,9.87
2019-04-07T22:49:45.912Z,9.86
2019-04-07T22:52:17.581Z,9.85
2019-04-07T22:54:45.681Z,9.84
2019-04-07T22:57:15.458Z,9.86
2019-04-07T22:59:44.542Z,9.85
2019-04-07T23:02:13.771Z,9.88
2019-04-07T23:04:42.725Z,9.82
2019-04-07T23:07:12.133Z,9.79
2019-04-07T23:09:41.219Z,9.78
2019-04-07T23:12:10.628Z,9.74
2019-04-07T23:14:40.119Z,9.75
2019-04-07T23:17:09.959Z,9.77
2019-04-07T23:19:39.907Z,9.71
2019-04-07T23:22:09.529Z,9.72
2019-04-07T23:24:39.027Z,9.72
2019-04-07T23:27:08.241Z,9.81
2019-04-07T23:29:37.408Z,9.83
2019-04-07T23:32:07.389Z,9.80
2019-04-07T23:34:36.567Z,9.81
2019-04-07T23:37:06.065Z,9.79
2019-04-07T23:39:35.606Z,9.76
2019-04-07T23:42:05.493Z,9.78
2019-04-07T23:44:35.246Z,9.78
2019-04-07T23:47:04.775Z,9.71
2019-04-07T23:49:34.254Z,9.69
2019-04-07T23:52:03.389Z,9.68
2019-04-07T23:54:33.106Z,9.65
2019-04-07T23:57:02.262Z,9.67
2019-04-07T23:59:31.293Z,9.70
